»·PEaware :: URF03 KPSP-KLGB

URF03 :: KPSP-KLGB

FLIGHT INFORMATION

Flight Status: Arrived
Operator: Unknown
More flights by this operator :: More flights under this callsign
Pilot: Jamie L. (18851)
Aircraft: PILATUS PC-12 EAGLE
(PC12)
More flights by this aircraft type
Origin: KPSP Palm Springs Intl
United States
Destination: KLGB Long Beach
United States
More flights between these airports :: More routes between these airports
Route: +CATH1 PSP V388 DEWAY HDF KAYOH KAYOH7
File this flight plan on PilotEdge
Remarks: SURF AIR 03
Altitude:
(Current/Filed)
12,000ft
Speed:
(Current/Filed)
210kts
Departed: 15-Apr-18 10:51 AM
Arrived: 15-Apr-18 11:25 AM
Distance/Time
Traveled:
82nm/0:34
Distance/Time
To Go:
Arrived

Flight Plot

Page will automatically refresh every two minutes.


Map Options




Map Legend


Flown Route
Filed Route
Departure Airport
Arrival Airport
Navaid (VOR, NDB)
Fix

Horizontal Profiles

Position Reports

Time Latitude Longitude Heading Altitude Ground
Speed
15-Apr-18 10:21 33.828577 -116.512629 68 482ft 0kts
15-Apr-18 10:22 33.828577 -116.512629 68 482ft 0kts
15-Apr-18 10:23 33.828577 -116.512629 68 482ft 0kts
15-Apr-18 10:24 33.828577 -116.512629 68 482ft 0kts
15-Apr-18 10:25 33.828577 -116.512629 68 482ft 0kts
15-Apr-18 10:26 33.828577 -116.512629 68 482ft 0kts
15-Apr-18 10:27 33.828577 -116.512629 68 482ft 0kts
15-Apr-18 10:28 33.828577 -116.512629 68 482ft 0kts
15-Apr-18 10:29 33.828549 -116.512626 84 482ft 0kts
15-Apr-18 10:30 33.828606 -116.512680 65 482ft 0kts
15-Apr-18 10:31 33.828607 -116.512677 65 482ft 0kts
15-Apr-18 10:32 33.828608 -116.512675 65 482ft 0kts
15-Apr-18 10:33 33.828609 -116.512672 65 482ft 0kts
15-Apr-18 10:34 33.828610 -116.512670 65 482ft 0kts
15-Apr-18 10:35 33.828611 -116.512667 65 482ft 0kts
15-Apr-18 10:36 33.828612 -116.512665 65 482ft 0kts
15-Apr-18 10:37 33.828612 -116.512665 65 482ft 0kts
15-Apr-18 10:38 33.828612 -116.512663 65 482ft 0kts
15-Apr-18 10:39 33.828613 -116.512661 65 482ft 0kts
15-Apr-18 10:40 33.828614 -116.512658 65 482ft 0kts
15-Apr-18 10:41 33.828615 -116.512656 65 482ft 0kts
15-Apr-18 10:42 33.828932 -116.511900 61 482ft 6kts
15-Apr-18 10:43 33.828996 -116.508753 143 482ft 9kts
15-Apr-18 10:44 33.826505 -116.506547 139 482ft 12kts
15-Apr-18 10:45 33.823548 -116.503939 143 482ft 12kts
15-Apr-18 10:46 33.820573 -116.501327 143 482ft 13kts
15-Apr-18 10:47 33.817434 -116.498540 132 482ft 11kts
15-Apr-18 10:48 33.817600 -116.497877 53 482ft 0kts
15-Apr-18 10:49 33.817600 -116.497876 53 482ft 0kts
15-Apr-18 10:50 33.819638 -116.498710 323 482ft 45kts
15-Apr-18 10:51 33.840967 -116.514949 10 1613ft 134kts
15-Apr-18 10:52 33.833360 -116.469788 94 3662ft 164kts
15-Apr-18 10:53 33.860455 -116.426099 341 5127ft 180kts
15-Apr-18 10:54 33.881075 -116.475555 283 6783ft 171kts
15-Apr-18 10:55 33.897560 -116.528571 293 8369ft 168kts
15-Apr-18 10:56 33.912467 -116.581819 286 10162ft 174kts
15-Apr-18 10:57 33.927756 -116.636489 284 11897ft 173kts
15-Apr-18 10:58 33.938715 -116.700517 279 12070ft 224kts
15-Apr-18 10:59 33.932726 -116.776808 251 12137ft 243kts
15-Apr-18 11:00 33.908187 -116.853187 246 11893ft 243kts
15-Apr-18 11:01 33.880507 -116.926189 245 11906ft 238kts
15-Apr-18 11:02 33.851779 -116.997547 247 11915ft 235kts
15-Apr-18 11:03 33.823719 -117.068716 247 11917ft 236kts
15-Apr-18 11:04 33.796343 -117.140527 246 11933ft 237kts
15-Apr-18 11:05 33.768331 -117.212985 247 11447ft 244kts
15-Apr-18 11:06 33.740162 -117.284720 247 10240ft 233kts
15-Apr-18 11:07 33.711355 -117.355242 247 9024ft 236kts
15-Apr-18 11:08 33.682155 -117.424439 247 8006ft 227kts
15-Apr-18 11:09 33.657815 -117.490471 266 7925ft 210kts
15-Apr-18 11:10 33.656332 -117.559402 272 7925ft 203kts
15-Apr-18 11:11 33.655994 -117.626884 272 7938ft 201kts
15-Apr-18 11:12 33.655647 -117.694332 272 7939ft 203kts
15-Apr-18 11:13 33.655234 -117.761816 272 7947ft 201kts
15-Apr-18 11:14 33.654803 -117.828809 272 7951ft 200kts
15-Apr-18 11:15 33.654221 -117.893865 272 7950ft 191kts
15-Apr-18 11:16 33.653678 -117.957375 275 7891ft 191kts
15-Apr-18 11:17 33.680458 -118.001747 311 6489ft 142kts
15-Apr-18 11:18 33.701725 -118.035371 260 4968ft 129kts
15-Apr-18 11:19 33.704403 -118.076051 317 3481ft 131kts
15-Apr-18 11:20 33.747781 -118.077321 341 2267ft 165kts
15-Apr-18 11:21 33.774925 -118.098915 306 1368ft 102kts
15-Apr-18 11:22 33.792696 -118.120912 309 695ft 85kts
15-Apr-18 11:23 33.808293 -118.139866 312 152ft 76kts
15-Apr-18 11:24 33.818045 -118.151665 315 65ft 26kts
15-Apr-18 11:25 33.818873 -118.153704 269 65ft 0kts
15-Apr-18 11:26 33.818873 -118.156033 269 65ft 11kts
15-Apr-18 11:27 33.818016 -118.159372 156 65ft 10kts
15-Apr-18 11:28 33.817954 -118.159051 85 65ft 0kts
15-Apr-18 11:29 33.817954 -118.159051 85 65ft 0kts
15-Apr-18 11:30 33.817954 -118.159051 85 65ft 0kts

Navigation Log

Ident Type
Flight plan parsing failed, navigation log unavailable